Time;durP1;ratioP1;P1;durP2;ratioP2;P2;SDS_P1;SDS_P2;PMS_P1;PMS_P2;Temp;Humidity;BMP_temperature;BMP_pressure;BME280_temperature;BME280_humidity;BME280_pressure;Samples;Min_cycle;Max_cycle;Signal;HPM_P1;HPM_P2
2023/01/27 00:00:19;;;;;;;14.67;11.83;;;;;;;4.01;100.00;101152.53;2094133;28;20452;-61
2023/01/27 00:01:19;;;;;;;13.48;11.98;;;;;;;4.03;100.00;101142.78;2094736;28;20259;-61
2023/01/27 00:02:20;;;;;;;12.60;10.97;;;;;;;3.97;100.00;101135.25;2097027;28;20247;-60
2023/01/27 00:03:21;;;;;;;13.20;11.27;;;;;;;3.79;100.00;101137.78;2096972;28;20182;-61
2023/01/27 00:04:22;;;;;;;13.07;10.60;;;;;;;3.86;100.00;101137.09;2095623;28;20191;-61
2023/01/27 00:05:22;;;;;;;13.67;11.87;;;;;;;3.93;100.00;101140.69;2102674;28;20208;-61
2023/01/27 00:06:23;;;;;;;15.07;11.57;;;;;;;3.96;100.00;101141.91;2096849;28;20570;-61
2023/01/27 00:07:23;;;;;;;13.17;11.73;;;;;;;3.95;100.00;101137.59;2096581;28;20188;-61
2023/01/27 00:08:24;;;;;;;14.00;11.13;;;;;;;3.97;100.00;101136.06;2090510;28;20186;-61
2023/01/27 00:09:24;;;;;;;13.77;11.50;;;;;;;3.90;100.00;101137.94;2094147;28;20247;-61
2023/01/27 00:10:25;;;;;;;14.17;12.17;;;;;;;3.85;100.00;101138.25;2101752;28;20182;-61
2023/01/27 00:13:30;;;;;;;14.15;11.82;;;;;;;3.75;100.00;101127.97;2093206;28;20420;-61
2023/01/27 00:14:10;;;;;;;14.00;11.70;;;;;;;3.49;100.00;101071.25;2090465;28;20679;-61
2023/01/27 00:15:13;;;;;;;13.70;11.70;;;;;;;3.89;100.00;101133.59;2096930;28;20546;-61
2023/01/27 00:16:13;;;;;;;13.07;11.65;;;;;;;3.92;100.00;101127.38;2096853;28;20183;-60
2023/01/27 00:17:13;;;;;;;13.67;12.10;;;;;;;3.81;100.00;101107.28;2093594;28;20183;-59
2023/01/27 00:18:14;;;;;;;15.23;12.60;;;;;;;3.91;100.00;101125.78;2089430;28;20357;-61
2023/01/27 00:19:18;;;;;;;13.90;12.40;;;;;;;3.72;100.00;101124.00;2096154;28;20226;-60
2023/01/27 00:24:34;;;;;;;14.10;12.55;;;;;;;3.68;100.00;101114.94;2097256;28;20185;-60
2023/01/27 00:24:35;;;;;;;14.27;12.52;;;;;;;3.75;100.00;101106.81;2100983;28;20201;-60
2023/01/27 00:25:35;;;;;;;15.43;13.10;;;;;;;3.71;100.00;101107.94;2097069;28;20656;-61
2023/01/27 00:26:36;;;;;;;14.30;12.63;;;;;;;3.61;100.00;101106.66;2092526;28;20624;-60
2023/01/27 00:27:36;;;;;;;14.93;13.33;;;;;;;3.52;100.00;101106.16;2091795;28;20687;-60
2023/01/27 00:28:39;;;;;;;15.10;13.50;;;;;;;3.44;100.00;101103.69;2087437;28;20234;-60
2023/01/27 00:29:39;;;;;;;14.45;12.93;;;;;;;3.46;100.00;101110.38;2087689;28;20283;-61
2023/01/27 00:30:40;;;;;;;13.87;11.57;;;;;;;3.40;100.00;101109.16;2097128;28;20231;-61
2023/01/27 00:34:18;;;;;;;11.40;10.20;;;;;;;2.66;100.00;100988.81;2088842;28;20412;-60
2023/01/27 00:35:19;;;;;;;13.40;12.00;;;;;;;3.28;100.00;101100.38;2088870;28;20175;-61
2023/01/27 00:36:19;;;;;;;14.63;12.03;;;;;;;3.22;100.00;101107.31;2096773;28;20197;-60
2023/01/27 00:37:20;;;;;;;13.00;11.50;;;;;;;3.14;100.00;101073.56;2089092;28;20276;-60
2023/01/27 00:38:20;;;;;;;13.07;11.57;;;;;;;3.41;100.00;101107.97;2088474;28;20224;-60
2023/01/27 00:39:20;;;;;;;13.17;11.77;;;;;;;3.42;100.00;101098.59;2092467;28;20577;-60
2023/01/27 00:40:21;;;;;;;13.53;11.67;;;;;;;3.26;100.00;101073.34;2093779;28;20279;-61
2023/01/27 00:41:22;;;;;;;13.63;12.10;;;;;;;3.49;100.00;101104.16;2092736;28;20186;-60
2023/01/27 00:42:22;;;;;;;13.60;11.17;;;;;;;3.48;100.00;101094.34;2095886;28;20665;-60
2023/01/27 00:43:23;;;;;;;12.47;11.17;;;;;;;3.52;100.00;101099.88;2088754;28;20419;-60
2023/01/27 00:44:23;;;;;;;11.87;10.67;;;;;;;3.56;100.00;101097.97;2088690;28;20268;-60
2023/01/27 00:46:42;;;;;;;12.23;10.93;;;;;;;3.58;100.00;101101.91;2088644;28;20780;-61
2023/01/27 00:47:43;;;;;;;12.10;10.80;;;;;;;3.54;100.00;101089.34;2095393;28;20197;-60
2023/01/27 00:48:44;;;;;;;12.47;11.03;;;;;;;3.58;100.00;101092.88;2090387;28;20257;-60
2023/01/27 00:49:45;;;;;;;12.57;11.20;;;;;;;3.50;100.00;101088.50;2093003;28;20181;-60
2023/01/27 00:50:45;;;;;;;11.83;10.40;;;;;;;3.42;100.00;101084.09;2096687;28;20283;-60
2023/01/27 00:51:46;;;;;;;12.53;11.23;;;;;;;3.47;100.00;101101.00;2094154;28;20661;-60
2023/01/27 00:52:46;;;;;;;11.50;10.03;;;;;;;3.46;100.00;101083.00;2088670;28;20671;-59
2023/01/27 00:53:47;;;;;;;12.43;10.40;;;;;;;3.15;100.00;101055.19;2088657;28;20261;-60
2023/01/27 00:54:48;;;;;;;11.23;10.03;;;;;;;3.42;100.00;101081.34;2092215;28;20277;-60
2023/01/27 00:55:48;;;;;;;11.60;10.40;;;;;;;3.47;100.00;101084.56;2097069;28;20724;-60
2023/01/27 00:56:49;;;;;;;11.80;10.00;;;;;;;3.47;100.00;101076.34;2096692;28;20539;-60
2023/01/27 00:57:49;;;;;;;11.90;10.23;;;;;;;3.47;100.00;101081.03;2096387;28;20189;-61
2023/01/27 00:58:50;;;;;;;11.40;10.07;;;;;;;3.46;100.00;101085.72;2096004;28;20618;-60
2023/01/27 00:59:50;;;;;;;11.83;9.70;;;;;;;3.50;100.00;101083.03;2096487;28;20266;-60
2023/01/27 01:00:58;;;;;;;11.43;10.20;;;;;;;3.37;100.00;101070.72;2095563;28;20202;-60
2023/01/27 01:01:59;;;;;;;11.70;9.77;;;;;;;3.35;100.00;101071.13;2092905;28;20168;-60
2023/01/27 01:02:59;;;;;;;11.27;9.80;;;;;;;3.40;100.00;101072.72;2088658;28;20411;-60
2023/01/27 01:04:00;;;;;;;12.90;9.80;;;;;;;3.43;100.00;101078.25;2091921;28;20197;-61
2023/01/27 01:05:01;;;;;;;12.73;10.38;;;;;;;2.66;100.00;100945.03;2089513;28;20194;-60
2023/01/27 01:06:04;;;;;;;9.63;8.63;;;;;;;3.56;100.00;101076.84;2093956;28;20193;-60
2023/01/27 01:07:05;;;;;;;10.98;8.82;;;;;;;3.44;100.00;101076.31;2091355;28;20217;-61
2023/01/27 01:08:05;;;;;;;9.57;8.47;;;;;;;3.31;100.00;101069.47;2091823;28;20185;-60
2023/01/27 01:09:06;;;;;;;10.13;8.47;;;;;;;3.42;100.00;101073.94;2093038;28;20174;-61
2023/01/27 01:10:06;;;;;;;9.27;8.27;;;;;;;2.54;100.00;100928.88;2088128;28;20559;-60
2023/01/27 01:11:12;;;;;;;9.67;8.50;;;;;;;3.51;100.00;101077.19;2087876;28;20207;-61
2023/01/27 01:12:12;;;;;;;8.95;8.05;;;;;;;3.50;100.00;101077.53;2098064;28;20406;-61
2023/01/27 01:13:13;;;;;;;8.63;7.37;;;;;;;3.54;100.00;101083.88;2090940;28;20193;-60
2023/01/27 01:14:14;;;;;;;9.27;7.70;;;;;;;3.30;100.00;101041.31;2095411;28;20275;-61
2023/01/27 01:15:14;;;;;;;8.17;7.23;;;;;;;3.53;100.00;101085.00;2092556;28;20673;-60
2023/01/27 01:16:21;;;;;;;8.80;7.53;;;;;;;3.49;100.00;101057.56;2094105;28;20579;-60
2023/01/27 01:17:21;;;;;;;9.00;7.43;;;;;;;3.60;100.00;101077.66;2093548;28;20218;-59
2023/01/27 01:18:22;;;;;;;8.10;7.23;;;;;;;3.58;100.00;101076.44;2092069;28;20680;-60
2023/01/27 01:19:23;;;;;;;9.37;7.10;;;;;;;3.52;100.00;101081.50;2096472;28;20168;-60
2023/01/27 01:20:23;;;;;;;8.87;7.47;;;;;;;3.13;100.00;101017.22;2098446;28;20564;-60
2023/01/27 01:21:24;;;;;;;8.63;7.73;;;;;;;3.54;100.00;101075.66;2091316;28;20209;-60
2023/01/27 01:22:24;;;;;;;7.73;6.93;;;;;;;3.53;100.00;101072.09;2089892;28;20192;-60
2023/01/27 01:23:25;;;;;;;8.03;7.00;;;;;;;3.48;100.00;101072.44;2093583;28;20195;-61
2023/01/27 01:24:25;;;;;;;8.70;7.67;;;;;;;3.39;100.00;101065.69;2090094;28;20230;-60
2023/01/27 01:25:26;;;;;;;8.03;7.20;;;;;;;3.43;100.00;101074.69;2094122;28;20712;-60
2023/01/27 01:26:26;;;;;;;8.87;7.20;;;;;;;3.47;100.00;101079.09;2097536;28;20234;-60
2023/01/27 01:27:28;;;;;;;8.37;7.50;;;;;;;3.41;100.00;101079.78;2097297;28;20191;-61
2023/01/27 01:28:28;;;;;;;9.38;7.75;;;;;;;3.49;100.00;101082.22;2099782;28;20183;-61
2023/01/27 01:29:29;;;;;;;8.37;7.33;;;;;;;3.46;100.00;101072.03;2097513;28;20182;-60
2023/01/27 01:30:29;;;;;;;8.00;7.20;;;;;;;3.51;100.00;101079.91;2095572;28;20896;-60
2023/01/27 01:31:29;;;;;;;9.23;7.77;;;;;;;3.60;100.00;101085.09;2090968;28;20582;-60
2023/01/27 01:32:30;;;;;;;9.23;7.60;;;;;;;3.61;100.00;101073.78;2088861;28;20313;-60
2023/01/27 01:33:30;;;;;;;7.87;7.07;;;;;;;3.65;100.00;101079.28;2088746;28;20198;-60
2023/01/27 01:34:31;;;;;;;7.30;6.60;;;;;;;3.27;100.00;101033.03;2089640;28;20270;-60
2023/01/27 01:35:36;;;;;;;10.10;7.30;;;;;;;3.28;100.00;101013.50;2089620;28;20224;-60
2023/01/27 01:36:37;;;;;;;7.82;6.93;;;;;;;3.79;100.00;101082.19;2097291;28;20179;-60
2023/01/27 01:37:37;;;;;;;8.00;6.67;;;;;;;3.77;100.00;101070.78;2097773;28;20173;-60
2023/01/27 01:38:38;;;;;;;7.97;6.97;;;;;;;3.81;100.00;101080.66;2090022;28;20722;-61
2023/01/27 01:39:38;;;;;;;8.03;7.07;;;;;;;3.77;100.00;101074.34;2089428;28;20603;-61
2023/01/27 01:40:40;;;;;;;8.70;7.60;;;;;;;3.81;100.00;101061.47;2097821;28;20216;-60
2023/01/27 01:41:41;;;;;;;7.82;6.88;;;;;;;3.82;100.00;101062.22;2098992;28;20202;-60
2023/01/27 01:43:02;;;;;;;7.33;6.60;;;;;;;3.78;100.00;101064.94;2097746;28;20204;-61
2023/01/27 01:44:23;;;;;;;9.57;7.47;;;;;;;3.84;100.00;101062.66;2094290;28;20589;-60
2023/01/27 01:45:38;;;;;;;8.48;7.32;;;;;;;3.82;100.00;101063.03;2089590;28;20284;-60
2023/01/27 01:46:38;;;;;;;8.43;6.95;;;;;;;3.81;100.00;101064.22;2091444;28;20209;-61
2023/01/27 01:47:39;;;;;;;9.03;7.07;;;;;;;3.82;100.00;101063.03;2091664;28;20284;-60
2023/01/27 01:48:48;;;;;;;7.93;6.80;;;;;;;3.84;100.00;101052.47;2094553;28;20247;-60
2023/01/27 01:49:49;;;;;;;10.13;6.82;;;;;;;3.81;100.00;101058.72;2094813;28;20202;-60
2023/01/27 01:51:16;;;;;;;7.53;6.47;;;;;;;3.84;100.00;101049.72;2097476;28;20213;-60
2023/01/27 01:52:20;;;;;;;8.40;6.93;;;;;;;3.35;100.00;100997.16;2092585;28;20316;-62
2023/01/27 01:53:28;;;;;;;7.68;6.50;;;;;;;3.74;100.00;101044.16;2097709;28;20203;-60
2023/01/27 01:54:34;;;;;;;8.23;7.38;;;;;;;3.66;100.00;101056.19;2093291;28;20204;-61
2023/01/27 01:55:37;;;;;;;9.57;7.15;;;;;;;3.68;100.00;101056.59;2093669;28;20184;-60
2023/01/27 01:56:42;;;;;;;8.45;7.10;;;;;;;3.70;100.00;101057.03;2097477;28;20272;-60
2023/01/27 01:57:44;;;;;;;8.23;6.68;;;;;;;3.65;100.00;101044.44;2091491;28;20181;-61
2023/01/27 01:58:46;;;;;;;8.35;6.45;;;;;;;3.75;100.00;101054.72;2095822;28;20198;-60
2023/01/27 01:59:53;;;;;;;8.85;6.97;;;;;;;3.62;100.00;101047.13;2089677;28;20615;-61
2023/01/27 02:00:54;;;;;;;8.10;6.15;;;;;;;3.07;100.00;100980.38;2102520;28;20632;-61
2023/01/27 02:01:59;;;;;;;6.53;5.70;;;;;;;3.58;100.00;101058.06;2091394;28;20552;-60
2023/01/27 02:03:01;;;;;;;7.57;6.10;;;;;;;3.42;100.00;101032.03;2089145;28;20561;-60
2023/01/27 02:04:08;;;;;;;6.53;5.90;;;;;;;3.66;100.00;101039.75;2093030;28;20246;-61
2023/01/27 02:05:19;;;;;;;6.95;5.28;;;;;;;3.74;100.00;101049.63;2096195;28;20181;-61
2023/01/27 02:06:20;;;;;;;7.57;4.90;;;;;;;3.68;100.00;101045.63;2090975;28;20276;-61
2023/01/27 02:07:35;;;;;;;6.20;5.13;;;;;;;3.72;100.00;101043.72;2094382;28;20194;-60
2023/01/27 02:08:43;;;;;;;6.07;5.00;;;;;;;3.76;100.00;101042.63;2094150;28;20197;-61
2023/01/27 02:09:44;;;;;;;5.63;4.95;;;;;;;3.84;100.00;101041.50;2096490;28;20181;-60
2023/01/27 02:10:44;;;;;;;5.60;4.67;;;;;;;3.19;100.00;100960.94;2095095;28;20476;-61
2023/01/27 02:11:45;;;;;;;5.60;4.70;;;;;;;3.76;100.00;101042.63;2097347;28;20619;-60
2023/01/27 02:12:45;;;;;;;5.30;4.77;;;;;;;3.72;100.00;101043.72;2098694;28;20545;-60
2023/01/27 02:13:46;;;;;;;5.07;4.47;;;;;;;3.82;100.00;101043.03;2096707;28;20261;-60
2023/01/27 02:14:46;;;;;;;5.30;4.70;;;;;;;3.58;100.00;101008.75;2097938;28;20186;-61
2023/01/27 02:15:49;;;;;;;4.97;4.30;;;;;;;3.73;100.00;101045.28;2097773;28;20239;-61
2023/01/27 02:16:50;;;;;;;5.10;4.50;;;;;;;3.77;100.00;101046.94;2099602;28;20182;-61
2023/01/27 02:17:50;;;;;;;5.77;4.73;;;;;;;3.77;100.00;101054.34;2089806;28;20229;-61
2023/01/27 02:18:51;;;;;;;4.80;4.30;;;;;;;3.79;100.00;101041.84;2093722;28;20242;-61
2023/01/27 02:20:18;;;;;;;4.80;4.30;;;;;;;3.66;100.00;101042.50;2097822;28;20182;-61
2023/01/27 02:21:19;;;;;;;4.80;4.20;;;;;;;3.55;100.00;101039.63;2092124;28;20477;-60
2023/01/27 02:22:32;;;;;;;5.00;4.17;;;;;;;3.51;100.00;101038.03;2080189;28;20205;-60
2023/01/27 02:23:54;;;;;;;5.68;4.55;;;;;;;3.42;100.00;101040.25;2086035;28;20192;-60
2023/01/27 02:25:02;;;;;;;5.72;4.47;;;;;;;3.30;100.00;101018.59;2100515;28;20201;-60
2023/01/27 02:26:28;;;;;;;4.40;4.00;;;;;;;3.55;100.00;101044.34;2092757;28;20595;-60
2023/01/27 02:27:29;;;;;;;4.50;4.03;;;;;;;3.45;100.00;101037.56;2094402;28;20210;-60
2023/01/27 02:28:30;;;;;;;4.73;3.80;;;;;;;3.52;100.00;101040.38;2096696;28;20200;-60
2023/01/27 02:29:31;;;;;;;4.60;4.20;;;;;;;3.49;100.00;101037.63;2096578;28;20205;-61
2023/01/27 02:30:31;;;;;;;4.67;4.00;;;;;;;3.28;100.00;101008.00;2099274;28;20191;-60
2023/01/27 02:31:32;;;;;;;5.40;4.60;;;;;;;3.52;100.00;101053.28;2105418;28;20180;-60
2023/01/27 02:32:33;;;;;;;4.70;4.20;;;;;;;2.99;100.00;100956.03;2095118;28;20236;-60
2023/01/27 02:33:34;;;;;;;5.88;4.63;;;;;;;3.56;100.00;101032.19;2097055;28;20673;-60
2023/01/27 02:34:36;;;;;;;4.77;4.17;;;;;;;3.55;100.00;101041.59;2096791;28;20562;-60
2023/01/27 02:35:43;;;;;;;5.35;4.47;;;;;;;3.02;100.00;100975.25;2092959;28;20189;-60
2023/01/27 02:36:59;;;;;;;5.82;4.70;;;;;;;3.53;100.00;101036.47;2088711;28;20818;-59
2023/01/27 02:38:00;;;;;;;5.43;4.65;;;;;;;3.25;100.00;100989.59;2096597;28;20268;-61
2023/01/27 02:39:02;;;;;;;5.30;4.47;;;;;;;3.59;100.00;101047.91;2094987;28;20237;-61
2023/01/27 02:40:04;;;;;;;5.22;4.72;;;;;;;3.60;100.00;101042.03;2093444;28;20189;-60
2023/01/27 02:41:33;;;;;;;4.40;3.95;;;;;;;3.63;100.00;101035.00;2088342;28;20202;-60
2023/01/27 02:42:33;;;;;;;4.72;3.97;;;;;;;3.24;100.00;100987.22;2087586;28;20204;-60
2023/01/27 02:43:34;;;;;;;5.00;4.50;;;;;;;3.58;100.00;101029.88;2098011;28;20202;-60
2023/01/27 02:44:34;;;;;;;4.50;4.10;;;;;;;3.63;100.00;101035.81;2099150;28;20279;-60
2023/01/27 02:45:35;;;;;;;5.47;4.70;;;;;;;3.57;100.00;101040.06;2095585;28;20196;-60
2023/01/27 02:46:36;;;;;;;5.33;4.27;;;;;;;2.93;100.00;100930.94;2088740;28;20649;-60
2023/01/27 02:47:36;;;;;;;5.10;4.53;;;;;;;3.58;100.00;101030.66;2093663;28;20185;-60
2023/01/27 02:48:36;;;;;;;5.93;4.53;;;;;;;3.44;100.00;101035.97;2097327;28;20184;-60
2023/01/27 02:49:37;;;;;;;5.30;4.40;;;;;;;3.39;100.00;101036.31;2105435;28;20208;-60
2023/01/27 02:50:37;;;;;;;5.93;4.77;;;;;;;3.46;100.00;101030.13;2083658;28;20202;-60
2023/01/27 02:51:38;;;;;;;5.63;4.50;;;;;;;3.49;100.00;101029.41;2085298;28;20177;-61
2023/01/27 02:52:38;;;;;;;6.00;4.83;;;;;;;3.01;100.00;100957.25;2093938;28;20224;-60
2023/01/27 02:53:39;;;;;;;5.57;4.50;;;;;;;3.53;100.00;101031.00;2092791;28;20188;-61
2023/01/27 02:54:39;;;;;;;5.60;4.50;;;;;;;3.01;100.00;100959.19;2089684;28;20177;-60
2023/01/27 02:55:40;;;;;;;4.60;4.10;;;;;;;3.44;100.00;101008.59;2096881;28;20222;-60
2023/01/27 02:56:40;;;;;;;4.70;4.23;;;;;;;3.36;100.00;101003.41;2097145;28;20257;-60
2023/01/27 02:57:41;;;;;;;5.83;5.10;;;;;;;3.49;100.00;101016.47;2093319;28;20580;-60
2023/01/27 02:58:41;;;;;;;5.53;4.67;;;;;;;3.52;100.00;101007.50;2096982;28;20229;-60
2023/01/27 02:59:42;;;;;;;4.87;4.37;;;;;;;3.43;100.00;101004.28;2097438;28;20177;-60
2023/01/27 03:00:42;;;;;;;4.20;3.80;;;;;;;2.88;100.00;100908.59;2097869;28;20203;-60
2023/01/27 03:01:43;;;;;;;4.87;4.37;;;;;;;3.33;100.00;100974.03;2089590;28;20340;-60
2023/01/27 03:02:43;;;;;;;4.73;4.23;;;;;;;3.50;100.00;101000.81;2095816;28;20185;-60
2023/01/27 03:03:45;;;;;;;4.67;4.03;;;;;;;3.42;100.00;100996.41;2092327;28;20190;-60
2023/01/27 03:04:46;;;;;;;4.80;4.30;;;;;;;3.45;100.00;100996.47;2093952;28;20187;-60
2023/01/27 03:05:49;;;;;;;5.07;4.23;;;;;;;3.40;100.00;101001.50;2094267;28;20270;-61
2023/01/27 03:06:50;;;;;;;6.65;4.53;;;;;;;3.34;100.00;100989.31;2092345;28;20207;-60
2023/01/27 03:07:50;;;;;;;4.83;4.33;;;;;;;3.36;100.00;100987.78;2097910;28;20191;-60
2023/01/27 03:08:51;;;;;;;4.97;4.30;;;;;;;3.41;100.00;100997.59;2088699;28;20185;-60
2023/01/27 03:09:51;;;;;;;5.33;4.23;;;;;;;3.43;100.00;100995.25;2089525;28;20266;-60
2023/01/27 03:10:54;;;;;;;5.20;3.83;;;;;;;3.25;100.00;100991.53;2089325;28;20260;-60
2023/01/27 03:13:13;;;;;;;4.82;4.00;;;;;;;3.21;100.00;100966.06;2089477;28;20193;-60
2023/01/27 03:14:14;;;;;;;4.60;4.10;;;;;;;3.34;100.00;100994.78;2094905;28;20219;-60
2023/01/27 03:19:11;;;;;;;4.80;4.10;;;;;;;3.16;100.00;100988.31;2088824;28;20177;-60
2023/01/27 03:20:12;;;;;;;5.33;4.13;;;;;;;2.32;100.00;100856.69;2097037;28;20671;-60
2023/01/27 03:21:12;;;;;;;5.00;4.23;;;;;;;2.77;100.00;100926.84;2103709;28;20608;-60
2023/01/27 03:22:13;;;;;;;5.83;4.17;;;;;;;3.15;100.00;100973.84;2094911;28;20253;-60
2023/01/27 03:23:17;;;;;;;5.23;3.70;;;;;;;3.11;100.00;100978.47;2093251;28;20210;-60
2023/01/27 03:24:17;;;;;;;4.07;3.67;;;;;;;3.03;100.00;100976.03;2089261;28;20713;-60
2023/01/27 03:25:18;;;;;;;5.33;4.37;;;;;;;3.09;100.00;100978.03;2093880;28;20571;-60
2023/01/27 03:26:18;;;;;;;5.33;4.30;;;;;;;3.11;100.00;100966.72;2096115;28;20181;-60
2023/01/27 03:27:19;;;;;;;4.60;4.03;;;;;;;3.08;100.00;100973.75;2089571;28;20176;-60
2023/01/27 03:28:19;;;;;;;4.77;4.13;;;;;;;3.12;100.00;100971.84;2097434;28;20569;-60
2023/01/27 03:30:39;;;;;;;5.60;4.65;;;;;;;3.03;100.00;100976.03;2089269;28;20169;-60
2023/01/27 03:31:40;;;;;;;6.57;4.95;;;;;;;2.97;100.00;100975.56;2080032;28;20280;-60
2023/01/27 03:32:45;;;;;;;5.10;4.50;;;;;;;3.11;100.00;100980.41;2086370;28;20183;-60
2023/01/27 03:33:46;;;;;;;5.95;4.90;;;;;;;3.03;100.00;100962.34;2094720;28;20188;-60
2023/01/27 03:34:47;;;;;;;5.63;4.80;;;;;;;2.95;100.00;100966.94;2095247;28;20664;-59
2023/01/27 03:35:47;;;;;;;5.20;4.50;;;;;;;3.16;100.00;100971.88;2088339;28;20188;-60
2023/01/27 03:46:16;;;;;;;4.72;4.22;;;;;;;3.25;100.00;100959.47;2089114;28;20595;-59
2023/01/27 03:47:16;;;;;;;5.15;4.10;;;;;;;3.27;100.00;100964.56;2090900;28;20172;-60
2023/01/27 03:48:19;;;;;;;4.70;4.20;;;;;;;3.27;100.00;100962.63;2096200;28;20723;-59
2023/01/27 03:49:20;;;;;;;4.70;4.18;;;;;;;3.13;100.00;100939.78;2088399;28;20314;-60
2023/01/27 03:50:29;;;;;;;5.17;4.33;;;;;;;3.24;100.00;100960.63;2089204;28;20238;-60
2023/01/27 03:51:30;;;;;;;5.28;4.35;;;;;;;3.26;100.00;100965.72;2096918;28;20215;-60
2023/01/27 03:52:30;;;;;;;5.70;4.40;;;;;;;3.26;100.00;100958.31;2093525;28;20198;-60
2023/01/27 03:53:31;;;;;;;5.87;4.87;;;;;;;3.25;100.00;100961.41;2097388;28;20195;-60
2023/01/27 03:54:32;;;;;;;5.43;4.70;;;;;;;3.23;100.00;100947.31;2092579;28;20199;-60
2023/01/27 03:55:35;;;;;;;4.80;4.30;;;;;;;3.37;100.00;100961.94;2092246;28;20195;-60
2023/01/27 03:56:36;;;;;;;5.40;4.90;;;;;;;3.38;100.00;100971.72;2094411;28;20194;-60
2023/01/27 03:57:37;;;;;;;4.97;4.43;;;;;;;3.41;100.00;100971.00;2096437;28;20198;-60
2023/01/27 03:58:37;;;;;;;4.80;4.30;;;;;;;3.45;100.00;100963.56;2096430;28;20570;-60
2023/01/27 03:59:38;;;;;;;5.33;4.70;;;;;;;3.46;100.00;100967.13;2088731;28;20176;-60
2023/01/27 04:00:39;;;;;;;5.43;4.60;;;;;;;3.51;100.00;100977.75;2088887;28;20274;-60
2023/01/27 04:01:42;;;;;;;4.65;4.15;;;;;;;3.26;100.00;100946.56;2094841;28;20270;-60
2023/01/27 04:07:59;;;;;;;5.03;4.40;;;;;;;3.30;100.00;100972.84;2092858;28;20206;-60
2023/01/27 04:09:01;;;;;;;4.97;4.37;;;;;;;3.37;100.00;100989.34;2096377;28;20183;-60
2023/01/27 04:10:03;;;;;;;4.82;4.32;;;;;;;3.35;100.00;100983.47;2088888;28;20180;-60
2023/01/27 04:12:23;;;;;;;5.70;4.57;;;;;;;3.37;100.00;100981.13;2089143;28;20260;-60
2023/01/27 04:13:23;;;;;;;5.60;4.50;;;;;;;3.46;100.00;100986.28;2096053;28;20191;-60
2023/01/27 04:14:28;;;;;;;5.00;4.50;;;;;;;3.49;100.00;100989.06;2090693;28;20281;-60
2023/01/27 04:15:28;;;;;;;5.00;4.40;;;;;;;3.47;100.00;100979.66;2094799;28;20199;-60
2023/01/27 04:16:29;;;;;;;5.40;4.00;;;;;;;3.51;100.00;100984.03;2092788;28;20274;-60
2023/01/27 04:17:37;;;;;;;5.07;4.20;;;;;;;3.49;100.00;100980.84;2088277;28;20574;-60
2023/01/27 04:18:37;;;;;;;5.45;4.75;;;;;;;3.35;100.00;100952.53;2096388;28;20235;-60
2023/01/27 04:19:38;;;;;;;6.13;5.30;;;;;;;3.52;100.00;100977.38;2094868;28;20192;-60
2023/01/27 04:20:39;;;;;;;6.50;4.73;;;;;;;3.44;100.00;100953.78;2089541;28;20562;-60
2023/01/27 04:21:39;;;;;;;6.73;5.43;;;;;;;3.63;100.00;100981.00;2096812;28;20198;-60
2023/01/27 04:22:40;;;;;;;5.97;4.43;;;;;;;3.70;100.00;100983.03;2089796;28;20181;-59
2023/01/27 04:23:40;;;;;;;5.33;4.77;;;;;;;3.70;100.00;100977.53;2090444;28;20224;-60
2023/01/27 04:24:41;;;;;;;4.87;4.10;;;;;;;3.64;100.00;100959.88;2090984;28;20189;-60
2023/01/27 04:25:41;;;;;;;4.77;4.20;;;;;;;3.65;100.00;100972.41;2092969;28;20189;-60
2023/01/27 04:26:45;;;;;;;4.73;4.00;;;;;;;3.62;100.00;100981.38;2096864;28;20222;-60
2023/01/27 04:27:45;;;;;;;4.97;4.28;;;;;;;3.57;100.00;100985.25;2095391;28;20191;-60
2023/01/27 04:28:46;;;;;;;5.43;4.40;;;;;;;3.60;100.00;100980.97;2098140;28;20207;-59
2023/01/27 04:29:47;;;;;;;4.60;4.00;;;;;;;3.59;100.00;100971.19;2097329;28;20548;-60
2023/01/27 04:30:48;;;;;;;4.63;4.13;;;;;;;3.43;100.00;100943.19;2088894;28;20236;-60
2023/01/27 04:31:49;;;;;;;4.93;4.40;;;;;;;3.44;100.00;100950.28;2088028;28;20287;-59
2023/01/27 04:32:49;;;;;;;5.10;4.60;;;;;;;3.39;100.00;100970.56;2090125;28;20200;-60
2023/01/27 04:33:50;;;;;;;5.57;4.67;;;;;;;2.70;100.00;100852.84;2098937;28;20891;-59
2023/01/27 04:34:50;;;;;;;5.73;4.30;;;;;;;3.28;100.00;100945.03;2097237;28;20188;-59
2023/01/27 04:35:50;;;;;;;5.30;4.80;;;;;;;3.52;100.00;100971.88;2094865;28;20186;-60
2023/01/27 04:36:51;;;;;;;6.10;4.73;;;;;;;3.41;100.00;100972.94;2088744;28;20203;-60
2023/01/27 04:37:52;;;;;;;7.93;5.20;;;;;;;3.48;100.00;100973.00;2091752;28;20185;-60
2023/01/27 04:38:52;;;;;;;7.43;5.17;;;;;;;3.49;100.00;100969.13;2088293;28;20679;-60
2023/01/27 04:39:53;;;;;;;6.13;5.40;;;;;;;3.47;100.00;100974.16;2088858;28;20442;-60
2023/01/27 04:40:53;;;;;;;7.07;6.20;;;;;;;3.47;100.00;100972.22;2094697;28;20595;-59
2023/01/27 04:41:57;;;;;;;7.17;6.17;;;;;;;3.53;100.00;100976.19;2097170;28;20193;-60
2023/01/27 04:42:58;;;;;;;7.10;6.22;;;;;;;3.59;100.00;100973.91;2099901;28;20454;-60
2023/01/27 04:43:58;;;;;;;7.13;5.67;;;;;;;3.62;100.00;100975.88;2094340;28;20272;-60
2023/01/27 04:44:59;;;;;;;7.30;6.00;;;;;;;3.64;100.00;100970.84;2090221;28;20178;-60
2023/01/27 04:45:59;;;;;;;7.73;5.23;;;;;;;3.51;100.00;100958.56;2096521;28;20180;-60
2023/01/27 04:47:00;;;;;;;8.00;6.20;;;;;;;3.60;100.00;100973.50;2093892;28;20217;-60
2023/01/27 04:48:00;;;;;;;7.33;5.83;;;;;;;3.49;100.00;100974.59;2092158;28;20206;-60
2023/01/27 04:49:01;;;;;;;7.00;6.30;;;;;;;3.05;100.00;100894.31;2091191;28;20236;-59
2023/01/27 04:50:02;;;;;;;7.90;6.60;;;;;;;3.59;100.00;100965.69;2095113;28;20198;-60
2023/01/27 04:51:02;;;;;;;7.57;6.70;;;;;;;3.56;100.00;100974.66;2098229;28;20673;-60
2023/01/27 04:52:03;;;;;;;7.40;6.53;;;;;;;3.47;100.00;100950.31;2100194;28;20193;-60
2023/01/27 04:53:03;;;;;;;6.90;6.20;;;;;;;3.56;100.00;100969.97;2090371;28;20184;-60
2023/01/27 04:54:04;;;;;;;7.13;5.87;;;;;;;3.30;100.00;100930.94;2091253;28;20253;-60
2023/01/27 04:55:05;;;;;;;6.40;5.70;;;;;;;3.40;100.00;100950.25;2098745;28;20221;-60
2023/01/27 04:56:22;;;;;;;6.60;5.90;;;;;;;3.58;100.00;100967.63;2098569;28;20196;-60
2023/01/27 04:57:23;;;;;;;6.43;5.45;;;;;;;3.52;100.00;100969.16;2098357;28;20156;-59
2023/01/27 04:58:23;;;;;;;6.03;5.43;;;;;;;3.41;100.00;100959.25;2099877;28;20195;-59
2023/01/27 04:59:24;;;;;;;4.80;4.30;;;;;;;3.40;100.00;100977.66;2097918;28;20195;-59
2023/01/27 05:00:24;;;;;;;5.90;5.30;;;;;;;3.27;100.00;100965.34;2100926;28;20219;-60
2023/01/27 05:01:26;;;;;;;5.70;5.20;;;;;;;3.37;100.00;100975.66;2096528;28;20271;-60
2023/01/27 05:02:26;;;;;;;6.72;5.25;;;;;;;3.12;100.00;100930.75;2094594;28;20766;-61
2023/01/27 05:03:26;;;;;;;6.43;5.67;;;;;;;3.32;100.00;100969.69;2096857;28;20997;-60
2023/01/27 05:04:27;;;;;;;6.30;5.53;;;;;;;3.35;100.00;100968.97;2095668;28;20202;-61
2023/01/27 05:05:27;;;;;;;6.27;5.67;;;;;;;3.29;100.00;100975.94;2097985;28;20187;-60
2023/01/27 05:06:28;;;;;;;6.43;5.60;;;;;;;3.10;100.00;100941.31;2097286;28;20207;-62
2023/01/27 05:07:28;;;;;;;6.70;5.40;;;;;;;3.28;100.00;100980.63;2097886;28;20230;-60
2023/01/27 05:08:29;;;;;;;5.73;5.03;;;;;;;3.24;100.00;100979.03;2096994;28;20269;-60
2023/01/27 05:09:29;;;;;;;6.17;5.37;;;;;;;3.25;100.00;100986.88;2095940;28;20184;-59
2023/01/27 05:10:30;;;;;;;6.13;5.50;;;;;;;3.21;100.00;100966.84;2097047;28;20191;-59
2023/01/27 05:11:30;;;;;;;5.87;5.10;;;;;;;2.83;100.00;100908.91;2097745;28;20195;-59
2023/01/27 05:12:31;;;;;;;6.00;5.40;;;;;;;3.16;100.00;100941.75;2097104;28;20265;-59
2023/01/27 05:13:32;;;;;;;6.27;5.53;;;;;;;3.45;100.00;100985.50;2097495;28;20187;-59
2023/01/27 05:14:33;;;;;;;7.03;6.33;;;;;;;3.54;100.00;100987.97;2097600;28;20190;-59
2023/01/27 05:15:33;;;;;;;6.80;6.10;;;;;;;3.14;100.00;100927.66;2094541;28;20200;-61
2023/01/27 05:16:33;;;;;;;6.57;5.93;;;;;;;3.35;100.00;100969.75;2097179;28;20181;-60
2023/01/27 05:17:34;;;;;;;6.97;6.23;;;;;;;3.42;100.00;100980.00;2096712;28;20219;-61
2023/01/27 05:18:35;;;;;;;7.70;6.17;;;;;;;2.59;100.00;100865.63;2096891;28;20808;-61